Lena — V2FR — position and weather

sailwx.info

Track history (hours):
 
Tides and Currents Weather Stations Pressure Air Temp Water Temp Dewpoint Dewpoint Depression Visibility Wind Speed Wind Dir Waves Ship Positions

Lena

Last reported at 2016-May-01 09:32 UTC. Time now 2016-May-01 09:54 UTC.
Position N 51°15' E 004°22'.

Length 152 m.

Type: Ship. MMSI: 304080808.

Date/timePositionNaut miles runAvg speedWind from/ knotsBaromVisibWave heightAir tempDewpointWater temp
2016-May-01 09:32N 51°15' E 004°22'0 0.0
2016-May-01 08:32N 51°15' E 004°22'0 0.0
2016-May-01 07:28N 51°15' E 004°22'0 0.0
2016-May-01 06:31N 51°15' E 004°22'0 0.0
2016-May-01 05:33N 51°15' E 004°22'0 0.0
2016-May-01 04:33N 51°15' E 004°22'0 0.0
2016-May-01 03:33N 51°15' E 004°22'0 0.0
2016-May-01 02:32N 51°15' E 004°22'0 0.0
2016-May-01 01:32N 51°15' E 004°22'0 0.0
2016-May-01 00:31N 51°15' E 004°22'0 0.0
2016-Apr-30 23:31N 51°15' E 004°22'0 0.0
2016-Apr-30 22:33N 51°15' E 004°22'0 0.0
2016-Apr-30 21:33N 51°15' E 004°22'0 0.0
2016-Apr-30 20:33N 51°15' E 004°22'0 0.0
2016-Apr-30 19:34N 51°15' E 004°22'2 2.2
2016-Apr-30 18:34N 51°17' E 004°20'1 1.1
2016-Apr-30 17:33N 51°17' E 004°19'1111.0
2016-Apr-30 16:34N 51°22' E 004°03'1312.8
2016-Apr-30 15:33N 51°23' E 003°43'1111.2
2016-Apr-30 14:33N 51°30' E 003°28'1614.4
2016-Apr-30 13:28N 51°43' E 003°14'12214.8
2016-Apr-30 05:16N 53°31' E 004°46'1116.0
2016-Apr-30 04:34N 53°35' E 005°04'1615.8
2016-Apr-30 03:34N 53°41' E 005°29'1515.0
2016-Apr-30 02:33N 53°45' E 005°53'1313.0
2016-Apr-30 01:33N 53°49' E 006°15'1212.5
2016-Apr-30 00:33N 53°51' E 006°35'1212.5
2016-Apr-29 23:33N 53°55' E 006°55'1313.0
2016-Apr-29 22:33N 53°58' E 007°17'1413.9
2016-Apr-29 21:33N 54°01' E 007°40'1515.4
2016-Apr-29 20:33N 54°01' E 008°06'1616.3
2016-Apr-29 19:34N 53°58' E 008°33'1414.0
2016-Apr-29 18:33N 53°51' E 008°53'1212.4
2016-Apr-29 17:33N 53°53' E 009°14'1312.8
2016-Apr-29 16:34N 53°43' E 009°28'1313.0
2016-Apr-29 15:33N 53°34' E 009°43'9 9.0
2016-Apr-29 14:34N 53°30' E 009°57'1 1.4
2016-Apr-29 13:31N 53°29' E 009°59'0 0.0
2016-Apr-29 12:28N 53°29' E 009°59'0 0.0
2016-Apr-29 11:33N 53°29' E 009°59'0 0.0
2016-Apr-29 10:33N 53°29' E 009°59'0 0.0
2016-Apr-29 09:34N 53°29' E 009°59'0 0.0
2016-Apr-29 08:34N 53°29' E 009°59'0 0.0
2016-Apr-29 07:32N 53°29' E 009°59'0 0.0
2016-Apr-29 06:31N 53°29' E 009°59'0 0.0
2016-Apr-29 05:31N 53°29' E 009°59'0 0.0
2016-Apr-29 04:33N 53°29' E 009°59'0 0.0
2016-Apr-29 03:33N 53°29' E 009°59'0 0.0
2016-Apr-29 02:33N 53°29' E 009°59'0 0.0
2016-Apr-29 01:32N 53°29' E 009°59'0 0.0
2016-Apr-29 00:32N 53°29' E 009°59'0 0.0
2016-Apr-28 23:31N 53°29' E 009°59'0 0.0
2016-Apr-28 22:31N 53°29' E 009°59'0 0.0
2016-Apr-28 21:33N 53°29' E 009°59'0 0.0
2016-Apr-28 20:33N 53°29' E 009°59'0 0.0
2016-Apr-28 19:33N 53°29' E 009°59'0 0.0
2016-Apr-28 18:32N 53°29' E 009°59'0 0.0
2016-Apr-28 17:32N 53°29' E 009°59'1 1.5
2016-Apr-28 16:34N 53°30' E 009°57'8 8.0
2016-Apr-28 15:34N 53°34' E 009°45'1717.5
2016-Apr-28 14:34N 53°46' E 009°24'1515.3
2016-Apr-28 13:33N 53°51' E 008°59'1818.3
2016-Apr-28 12:34N 53°58' E 008°31'1817.6
2016-Apr-28 11:33N 53°59' E 008°01'1716.8
2016-Apr-28 10:34N 53°56' E 007°33'1716.8
2016-Apr-28 09:33N 53°52' E 007°05'1817.7
2016-Apr-28 08:33N 53°47' E 006°36'1717.2
2016-Apr-28 07:33N 53°42' E 006°09'1717.1
2016-Apr-28 06:33N 53°37' E 005°41'1615.7
2016-Apr-28 05:33N 53°32' E 005°16'4213.8
2016-Apr-28 02:31N 53°04' E 004°24'1414.6
2016-Apr-28 01:33N 52°51' E 004°14'2014.8
2016-Apr-28 00:11N 52°35' E 003°53'8615.3
2016-Apr-27 18:33N 51°32' E 002°18'1515.2
2016-Apr-27 17:33N 51°21' E 002°02'1616.4
2016-Apr-27 16:33N 51°09' E 001°44'1717.3
2016-Apr-27 15:33N 50°54' E 001°29'5215.2
2016-Apr-27 12:09N 50°23' E 000°25'1016.8
2016-Apr-27 11:33N 50°20' E 000°10'1716.8
2016-Apr-27 10:33N 50°15' W 000°15'11514.2
2016-Apr-27 02:27N 49°46' W 003°08'  
Track history (hours):
 
Tides and Currents Weather Stations Pressure Air Temp Water Temp Dewpoint Dewpoint Depression Visibility Wind Speed Wind Dir Waves Ship Positions

Lena

Last reported at 2016-May-01 09:32 UTC. Time now 2016-May-01 09:54 UTC.
Position N 51°15' E 004°22'.

Length 152 m.

Type: Ship. MMSI: 304080808.

Date/timePositionNaut miles runAvg speedWind from/ knotsBaromVisibWave heightAir tempDewpointWater temp
2016-May-01 09:32N 51°15' E 004°22'0 0.0
2016-May-01 08:32N 51°15' E 004°22'0 0.0
2016-May-01 07:28N 51°15' E 004°22'0 0.0
2016-May-01 06:31N 51°15' E 004°22'0 0.0
2016-May-01 05:33N 51°15' E 004°22'0 0.0
2016-May-01 04:33N 51°15' E 004°22'0 0.0
2016-May-01 03:33N 51°15' E 004°22'0 0.0
2016-May-01 02:32N 51°15' E 004°22'0 0.0
2016-May-01 01:32N 51°15' E 004°22'0 0.0
2016-May-01 00:31N 51°15' E 004°22'0 0.0
2016-Apr-30 23:31N 51°15' E 004°22'0 0.0
2016-Apr-30 22:33N 51°15' E 004°22'0 0.0
2016-Apr-30 21:33N 51°15' E 004°22'0 0.0
2016-Apr-30 20:33N 51°15' E 004°22'0 0.0
2016-Apr-30 19:34N 51°15' E 004°22'2 2.2
2016-Apr-30 18:34N 51°17' E 004°20'1 1.1
2016-Apr-30 17:33N 51°17' E 004°19'1111.0
2016-Apr-30 16:34N 51°22' E 004°03'1312.8
2016-Apr-30 15:33N 51°23' E 003°43'1111.2
2016-Apr-30 14:33N 51°30' E 003°28'1614.4
2016-Apr-30 13:28N 51°43' E 003°14'12214.8
2016-Apr-30 05:16N 53°31' E 004°46'1116.0
2016-Apr-30 04:34N 53°35' E 005°04'1615.8
2016-Apr-30 03:34N 53°41' E 005°29'1515.0
2016-Apr-30 02:33N 53°45' E 005°53'1313.0
2016-Apr-30 01:33N 53°49' E 006°15'1212.5
2016-Apr-30 00:33N 53°51' E 006°35'1212.5
2016-Apr-29 23:33N 53°55' E 006°55'1313.0
2016-Apr-29 22:33N 53°58' E 007°17'1413.9
2016-Apr-29 21:33N 54°01' E 007°40'1515.4
2016-Apr-29 20:33N 54°01' E 008°06'1616.3
2016-Apr-29 19:34N 53°58' E 008°33'1414.0
2016-Apr-29 18:33N 53°51' E 008°53'1212.4
2016-Apr-29 17:33N 53°53' E 009°14'1312.8
2016-Apr-29 16:34N 53°43' E 009°28'1313.0
2016-Apr-29 15:33N 53°34' E 009°43'9 9.0
2016-Apr-29 14:34N 53°30' E 009°57'1 1.4
2016-Apr-29 13:31N 53°29' E 009°59'0 0.0
2016-Apr-29 12:28N 53°29' E 009°59'0 0.0
2016-Apr-29 11:33N 53°29' E 009°59'0 0.0
2016-Apr-29 10:33N 53°29' E 009°59'0 0.0
2016-Apr-29 09:34N 53°29' E 009°59'0 0.0
2016-Apr-29 08:34N 53°29' E 009°59'0 0.0
2016-Apr-29 07:32N 53°29' E 009°59'0 0.0
2016-Apr-29 06:31N 53°29' E 009°59'0 0.0
2016-Apr-29 05:31N 53°29' E 009°59'0 0.0
2016-Apr-29 04:33N 53°29' E 009°59'0 0.0
2016-Apr-29 03:33N 53°29' E 009°59'0 0.0
2016-Apr-29 02:33N 53°29' E 009°59'0 0.0
2016-Apr-29 01:32N 53°29' E 009°59'0 0.0
2016-Apr-29 00:32N 53°29' E 009°59'0 0.0
2016-Apr-28 23:31N 53°29' E 009°59'0 0.0
2016-Apr-28 22:31N 53°29' E 009°59'0 0.0
2016-Apr-28 21:33N 53°29' E 009°59'0 0.0
2016-Apr-28 20:33N 53°29' E 009°59'0 0.0
2016-Apr-28 19:33N 53°29' E 009°59'0 0.0
2016-Apr-28 18:32N 53°29' E 009°59'0 0.0
2016-Apr-28 17:32N 53°29' E 009°59'1 1.5
2016-Apr-28 16:34N 53°30' E 009°57'8 8.0
2016-Apr-28 15:34N 53°34' E 009°45'1717.5
2016-Apr-28 14:34N 53°46' E 009°24'1515.3
2016-Apr-28 13:33N 53°51' E 008°59'1818.3
2016-Apr-28 12:34N 53°58' E 008°31'1817.6
2016-Apr-28 11:33N 53°59' E 008°01'1716.8
2016-Apr-28 10:34N 53°56' E 007°33'1716.8
2016-Apr-28 09:33N 53°52' E 007°05'1817.7
2016-Apr-28 08:33N 53°47' E 006°36'1717.2
2016-Apr-28 07:33N 53°42' E 006°09'1717.1
2016-Apr-28 06:33N 53°37' E 005°41'1615.7
2016-Apr-28 05:33N 53°32' E 005°16'4213.8
2016-Apr-28 02:31N 53°04' E 004°24'1414.6
2016-Apr-28 01:33N 52°51' E 004°14'2014.8
2016-Apr-28 00:11N 52°35' E 003°53'8615.3
2016-Apr-27 18:33N 51°32' E 002°18'1515.2
2016-Apr-27 17:33N 51°21' E 002°02'1616.4
2016-Apr-27 16:33N 51°09' E 001°44'1717.3
2016-Apr-27 15:33N 50°54' E 001°29'5215.2
2016-Apr-27 12:09N 50°23' E 000°25'1016.8
2016-Apr-27 11:33N 50°20' E 000°10'1716.8
2016-Apr-27 10:33N 50°15' W 000°15'11514.2
2016-Apr-27 02:27N 49°46' W 003°08'  

Dump ship's entire track history